createdAt,value
2023-05-31T00:00:31.018Z,7.55
2023-05-31T00:05:32.468Z,6.75
2023-05-31T00:10:33.967Z,7.25
2023-05-31T00:15:35.428Z,6.57
2023-05-31T00:20:37.201Z,6.53
2023-05-31T00:25:39.631Z,7.30
2023-05-31T00:30:41.473Z,6.45
2023-05-31T00:35:42.953Z,6.47
2023-05-31T00:40:45.715Z,5.28
2023-05-31T00:45:47.180Z,5.38
2023-05-31T00:50:50.333Z,6.90
2023-05-31T00:55:53.215Z,6.38
2023-05-31T01:00:55.930Z,6.10
2023-05-31T01:05:57.393Z,7.45
2023-05-31T01:11:07.989Z,7.40
2023-05-31T01:16:27.309Z,7.80
2023-05-31T01:21:52.628Z,8.45
2023-05-31T01:26:56.092Z,8.07
2023-05-31T01:31:59.394Z,6.25
2023-05-31T01:37:00.913Z,6.53
2023-05-31T01:42:03.844Z,6.07
2023-05-31T01:47:08.750Z,4.85
2023-05-31T01:52:14.822Z,5.90
2023-05-31T01:57:18.233Z,5.47
2023-05-31T02:02:20.939Z,4.10
2023-05-31T02:07:22.489Z,2.63
2023-05-31T02:12:24.028Z,2.78
2023-05-31T02:17:25.578Z,3.00
2023-05-31T02:22:27.066Z,3.00
2023-05-31T02:27:30.281Z,2.58
2023-05-31T02:32:35.282Z,2.85
2023-05-31T02:37:39.035Z,3.40
2023-05-31T02:42:42.021Z,4.00
2023-05-31T02:47:43.621Z,4.18
2023-05-31T02:52:45.162Z,3.15
2023-05-31T02:58:07.026Z,3.25
2023-05-31T03:03:11.009Z,3.60
2023-05-31T03:08:31.646Z,3.28
2023-05-31T03:13:33.729Z,3.60
2023-05-31T03:18:35.557Z,4.10
2023-05-31T03:23:37.957Z,4.47
2023-05-31T03:28:39.518Z,4.32
2023-05-31T03:33:41.059Z,5.78
2023-05-31T03:38:42.679Z,8.52
2023-05-31T03:43:44.355Z,5.18
2023-05-31T03:48:47.179Z,4.25
2023-05-31T03:53:48.710Z,4.13
2023-05-31T03:58:50.259Z,3.95
2023-05-31T04:03:52.393Z,3.95
2023-05-31T04:08:53.983Z,4.00
2023-05-31T04:13:55.545Z,4.30
2023-05-31T04:18:58.887Z,4.15
2023-05-31T04:24:00.490Z,4.05
2023-05-31T04:29:02.248Z,4.93
2023-05-31T04:34:04.736Z,3.95
2023-05-31T04:39:10.098Z,4.82
2023-05-31T04:44:12.640Z,5.03
2023-05-31T04:49:14.126Z,5.25
2023-05-31T04:54:15.758Z,6.25
2023-05-31T04:59:17.281Z,6.65
2023-05-31T05:04:19.816Z,7.43
2023-05-31T05:09:23.797Z,7.95
2023-05-31T05:14:25.823Z,7.53
2023-05-31T05:19:27.456Z,6.68
2023-05-31T05:24:28.983Z,6.00
2023-05-31T05:29:30.681Z,6.40
2023-05-31T05:34:32.191Z,6.07
2023-05-31T05:39:33.959Z,5.95
2023-05-31T05:44:35.537Z,5.80
2023-05-31T05:49:38.353Z,4.90
2023-05-31T05:54:42.079Z,4.57
2023-05-31T05:59:44.726Z,4.70
2023-05-31T06:04:56.793Z,4.70
2023-05-31T06:09:58.365Z,4.50
2023-05-31T06:15:00.023Z,4.22
2023-05-31T06:20:02.640Z,4.20
2023-05-31T06:25:04.568Z,4.20
2023-05-31T06:30:08.803Z,4.80
2023-05-31T06:35:16.519Z,3.60
2023-05-31T06:40:19.481Z,3.58
2023-05-31T06:45:21.057Z,3.83
2023-05-31T06:50:25.168Z,3.60
2023-05-31T06:55:27.103Z,3.50
2023-05-31T07:00:29.281Z,3.20
2023-05-31T07:05:30.864Z,3.50
2023-05-31T07:10:33.640Z,2.50
2023-05-31T07:15:35.394Z,2.72
2023-05-31T07:20:37.006Z,2.53
2023-05-31T07:25:38.540Z,3.15
2023-05-31T07:30:40.019Z,3.15
2023-05-31T07:35:43.066Z,3.03
2023-05-31T07:40:44.545Z,2.55
2023-05-31T07:45:46.067Z,2.50
2023-05-31T07:50:48.164Z,3.30
2023-05-31T07:55:49.665Z,2.95
2023-05-31T08:00:51.107Z,1.92
2023-05-31T08:05:53.988Z,2.85
2023-05-31T08:10:55.667Z,3.05
2023-05-31T08:15:57.163Z,2.75
2023-05-31T08:20:58.812Z,3.28
2023-05-31T08:26:00.489Z,3.47
2023-05-31T08:31:02.018Z,3.80
2023-05-31T08:36:03.537Z,3.72
2023-05-31T08:41:05.547Z,3.80
2023-05-31T08:46:08.947Z,4.13
2023-05-31T08:51:12.847Z,4.18
2023-05-31T08:56:14.971Z,3.30
2023-05-31T09:01:21.230Z,3.88
2023-05-31T09:06:22.934Z,3.33
2023-05-31T09:11:24.483Z,3.45
2023-05-31T09:16:26.189Z,2.95
2023-05-31T09:21:27.800Z,3.50
2023-05-31T09:26:29.343Z,3.17
2023-05-31T09:31:31.313Z,2.67
2023-05-31T09:36:33.065Z,2.83
2023-05-31T09:41:35.096Z,3.05
2023-05-31T09:46:38.016Z,2.70
2023-05-31T09:51:40.304Z,3.20
2023-05-31T09:56:42.161Z,2.38
2023-05-31T10:01:44.621Z,2.33
2023-05-31T10:06:47.230Z,2.15
2023-05-31T10:11:52.040Z,2.08
2023-05-31T10:16:55.882Z,2.63
2023-05-31T10:21:59.699Z,3.80
2023-05-31T10:27:12.668Z,2.95
2023-05-31T10:32:21.830Z,3.17
2023-05-31T10:37:23.980Z,2.95
2023-05-31T10:42:47.336Z,2.05
2023-05-31T10:48:13.584Z,2.00
2023-05-31T10:53:15.165Z,2.83
2023-05-31T10:58:39.292Z,1.70
2023-05-31T11:03:54.147Z,1.77
2023-05-31T11:09:25.273Z,2.00
2023-05-31T11:14:28.750Z,1.27
2023-05-31T11:19:32.232Z,1.73
2023-05-31T11:24:40.643Z,1.75
2023-05-31T11:29:44.823Z,1.80
2023-05-31T11:34:53.521Z,1.40
2023-05-31T11:39:58.546Z,1.88
2023-05-31T11:45:18.210Z,2.10
2023-05-31T11:50:20.343Z,2.38
2023-05-31T11:55:22.118Z,2.03
2023-05-31T12:00:23.591Z,2.25
2023-05-31T12:05:25.356Z,2.33
2023-05-31T12:10:32.118Z,1.63
2023-05-31T12:15:33.609Z,1.27
2023-05-31T12:20:35.309Z,1.10
2023-05-31T12:25:36.781Z,1.35
2023-05-31T12:30:48.729Z,1.10
2023-05-31T12:35:50.457Z,1.40
2023-05-31T12:40:53.704Z,1.23
2023-05-31T12:45:55.333Z,1.50
2023-05-31T12:50:58.335Z,1.15
2023-05-31T12:55:59.813Z,1.65
2023-05-31T13:01:01.505Z,1.55
2023-05-31T13:06:03.629Z,1.27
2023-05-31T13:11:05.151Z,1.27
2023-05-31T13:16:06.805Z,1.40
2023-05-31T13:21:08.323Z,1.10
2023-05-31T13:26:10.021Z,1.25
2023-05-31T13:31:11.726Z,0.80
2023-05-31T13:36:13.661Z,0.75
2023-05-31T13:41:15.101Z,1.00
2023-05-31T13:46:16.670Z,0.88
2023-05-31T13:51:18.312Z,1.20
2023-05-31T13:56:19.778Z,1.50
2023-05-31T14:01:21.266Z,1.50
2023-05-31T14:06:22.760Z,1.20
2023-05-31T14:11:24.225Z,1.58
2023-05-31T14:16:25.719Z,1.80
2023-05-31T14:21:27.313Z,1.70
2023-05-31T14:26:28.877Z,2.20
2023-05-31T14:31:30.553Z,1.83
2023-05-31T14:36:32.052Z,1.90
2023-05-31T14:41:33.820Z,2.08
2023-05-31T14:46:35.374Z,2.50
2023-05-31T14:51:36.858Z,2.42
2023-05-31T14:56:38.328Z,2.75
2023-05-31T15:01:40.338Z,3.78
2023-05-31T15:06:43.164Z,2.85
2023-05-31T15:11:44.628Z,2.78
2023-05-31T15:16:46.101Z,2.80
2023-05-31T15:21:47.640Z,3.50
2023-05-31T15:26:49.883Z,2.92
2023-05-31T15:31:52.763Z,2.85
2023-05-31T15:36:54.290Z,3.42
2023-05-31T15:41:55.762Z,3.13
2023-05-31T15:46:57.283Z,3.35
2023-05-31T15:51:58.816Z,3.92
2023-05-31T15:57:00.298Z,3.08
2023-05-31T16:02:02.091Z,3.83
2023-05-31T16:07:03.624Z,3.58
2023-05-31T16:12:05.749Z,3.15
2023-05-31T16:17:07.351Z,3.00
2023-05-31T16:22:08.947Z,3.30
2023-05-31T16:27:10.518Z,3.28
2023-05-31T16:32:11.998Z,3.58
2023-05-31T16:37:13.460Z,3.97
2023-05-31T16:42:15.002Z,3.63
2023-05-31T16:47:16.548Z,3.95
2023-05-31T16:52:18.012Z,4.50
2023-05-31T16:57:19.476Z,4.03
2023-05-31T17:02:20.952Z,4.00
2023-05-31T17:07:22.564Z,4.45
2023-05-31T17:12:24.577Z,4.05
2023-05-31T17:17:26.328Z,3.75
2023-05-31T17:22:27.799Z,4.68
2023-05-31T17:27:29.247Z,3.50
2023-05-31T17:32:30.730Z,3.35
2023-05-31T17:37:32.216Z,3.97
2023-05-31T17:42:33.663Z,2.60
2023-05-31T17:47:35.156Z,3.50
2023-05-31T17:52:36.994Z,3.17
2023-05-31T17:57:38.513Z,2.92
2023-05-31T18:02:40.093Z,3.22
2023-05-31T18:07:41.625Z,3.60
2023-05-31T18:12:44.462Z,3.25
2023-05-31T18:17:47.817Z,3.40
2023-05-31T18:22:49.421Z,3.00
2023-05-31T18:27:50.877Z,3.22
2023-05-31T18:32:52.388Z,3.10
2023-05-31T18:37:53.938Z,3.47
2023-05-31T18:42:55.381Z,4.07
2023-05-31T18:47:56.921Z,3.22
2023-05-31T18:52:58.445Z,3.28
2023-05-31T18:57:59.912Z,3.08
2023-05-31T19:03:01.452Z,2.60
2023-05-31T19:08:02.982Z,3.05
2023-05-31T19:13:04.511Z,2.60
2023-05-31T19:18:17.706Z,3.33
2023-05-31T19:23:20.996Z,3.80
2023-05-31T19:28:22.617Z,2.70
2023-05-31T19:33:24.162Z,3.15
2023-05-31T19:38:25.612Z,3.30
2023-05-31T19:43:27.226Z,3.15
2023-05-31T19:48:28.756Z,3.30
2023-05-31T19:53:30.237Z,3.30
2023-05-31T19:58:31.757Z,4.25
2023-05-31T20:03:33.391Z,3.30
2023-05-31T20:08:35.129Z,3.83
2023-05-31T20:13:36.636Z,3.30
2023-05-31T20:18:38.118Z,3.97
2023-05-31T20:23:39.585Z,3.25
2023-05-31T20:28:41.163Z,3.33
2023-05-31T20:33:43.273Z,3.22
2023-05-31T20:38:44.799Z,4.20
2023-05-31T20:43:46.270Z,3.80
2023-05-31T20:48:47.749Z,3.70
2023-05-31T20:53:49.790Z,3.78
2023-05-31T20:58:51.592Z,3.90
2023-05-31T21:03:53.756Z,3.92
2023-05-31T21:08:55.417Z,4.70
2023-05-31T21:13:56.943Z,4.18
2023-05-31T21:18:58.428Z,4.53
2023-05-31T21:24:00.210Z,4.68
2023-05-31T21:29:01.736Z,4.18
2023-05-31T21:34:03.241Z,5.00
2023-05-31T21:39:04.763Z,5.97
2023-05-31T21:44:06.251Z,6.28
2023-05-31T21:49:07.941Z,5.25
2023-05-31T21:54:09.426Z,5.40
2023-05-31T21:59:10.953Z,4.68
2023-05-31T22:04:12.658Z,5.40
2023-05-31T22:09:14.231Z,5.30
2023-05-31T22:14:16.041Z,5.10
2023-05-31T22:19:18.339Z,4.38
2023-05-31T22:24:20.466Z,4.63
2023-05-31T22:29:22.149Z,4.18
2023-05-31T22:34:23.707Z,4.53
2023-05-31T22:39:25.170Z,5.47
2023-05-31T22:44:26.628Z,4.30
2023-05-31T22:49:28.100Z,5.78
2023-05-31T22:54:29.566Z,6.30
2023-05-31T22:59:31.135Z,6.00
2023-05-31T23:04:32.604Z,4.95
2023-05-31T23:09:34.060Z,5.72
2023-05-31T23:14:35.511Z,5.47
2023-05-31T23:19:37.022Z,5.13
2023-05-31T23:24:38.480Z,5.50
2023-05-31T23:29:39.952Z,5.78
2023-05-31T23:34:41.479Z,6.35
2023-05-31T23:39:42.946Z,5.07
2023-05-31T23:44:44.475Z,5.05
2023-05-31T23:49:45.931Z,5.13
2023-05-31T23:54:47.468Z,3.97
2023-05-31T23:59:49.062Z,4.07
